AirNav  
 
 426 users online  

KUWL New Castle-Henry County Municipal Airport
New Castle, Indiana, USA

GOING TO NEW CASTLE?


FAA INFORMATION EFFECTIVE 09 NOVEMBER 2017

Location

FAA Identifier: UWL
Lat/Long: 39-52-33.0660N / 085-19-35.2850W
39-52.551100N / 085-19.588083W
39.8758517 / -85.3264681
(estimated)
Elevation: 1087.6 ft. / 331.5 m (surveyed)
Variation: 02W (1980)
From city: 4 miles SE of NEW CASTLE, IN
Time zone: UTC -5 (UTC -4 during Daylight Saving Time)
Zip code: 47362

Airport Operations

Airport use: Open to the public
Activation date: 09/1971
Control tower: no
ARTCC: INDIANAPOLIS CENTER
FSS: TERRE HAUTE FLIGHT SERVICE STATION
NOTAMs facility: HUF (NOTAM-D service available)
Attendance: 0800-1800
FOR FUEL WHEN ARPT UNATNDD PHONE 765-332-2969.
Wind indicator: lighted
Segmented circle: no
Lights: MIRL RY 09/27 PRESET ON LOW INTST; TO INCR INTST & ACTVT PAPI RYS 09 & 27; REIL RYS 09 & 27 - CTAF.
Beacon: white-green (lighted land airport)
Operates sunset to sunrise.

Airport Communications

CTAF/UNICOM: 123.05
INDIANAPOLIS APPROACH: 135.45
INDIANAPOLIS DEPARTURE: 135.45
WX AWOS-3 at CEV (14 nm SE): 118.325 (765-827-6649)
WX AWOS-3 at AID (19 nm NW): 128.55 (765-378-1510)

Nearby radio navigation aids

VOR radial/distance  VOR name  Freq  Var
MIEr175/21.9MUNCIE VOR/DME114.4003W
RIDr291/23.6RICHMOND VORTAC110.6003W
SHBr057/27.2SHELBYVILLE VOR/DME112.0001E

 
NDB name  Hdg/Dist  Freq  Var  ID
NEW CASTLEat field38502WUWL ..- .-- .-..
PNTHR307/10.822704WSQ ... --.-
VIDEO147/14.439403WAI .- ..
BATESVILLE359/31.925405WHLB .... .-.. -...
METROPOLITAN099/33.533803WUMP ..- -- .--.

Airport Services

Fuel available: 100LL JET-A
Parking: hangars and tiedowns
Airframe service: MINOR
Powerplant service: MINOR
Bottled oxygen: NONE

Runway Information

Runway 9/27

Dimensions: 4000 x 65 ft. / 1219 x 20 m
Surface: asphalt, in good condition
Weight bearing capacity: 
Single wheel: 6.0
Runway edge lights: medium intensity
RUNWAY 9  RUNWAY 27
Latitude: 39-52.557890N39-52.542238N
Longitude: 085-20.015623W085-19.160802W
Elevation: 1074.0 ft.1087.5 ft.
Gradient: 0.2%0.2%
Traffic pattern: leftleft
Runway heading: 093 magnetic, 091 true273 magnetic, 271 true
Displaced threshold: 92 ft.320 ft.
Markings: nonprecision, in good conditionnonprecision, in good condition
Visual slope indicator: 2-light PAPI on left (3.00 degrees glide path)2-light PAPI on left (3.00 degrees glide path)
Runway end identifier lights: yesyes
Touchdown point: yes, no lightsyes, no lights
Obstructions: 11 ft. road, 202 ft. from runway
10 FT CROPS 115' FM RY END.
10 ft. crops, 201 ft. from runway
RWY 27 15 FT ROAD 55' FM RY END. CROPS 79' FM RY END.

Airport Ownership and Management from official FAA records

Ownership: Publicly-owned
Owner: NEW CASTLE/HENRY COUNTY
2912 E. CO. RD. 400 S.
NEW CASTLE, IN 47362
Phone 765-529-7903
AIRPORT OWNED BY MR. MARLATT, RUNWAY OWNED BY CITY OF NEW CASTLE, HENRY CO.
Manager: JOHN MARLATT
2912 E. CO. RD. 400 S.
NEW CASTLE, IN 47362
Phone 765-529-7903
OR 765-529-7909.

Airport Operational Statistics

Aircraft based on the field: 20
Single engine airplanes: 15
Multi engine airplanes: 4
Ultralights: 1
    
Aircraft operations: avg 131/week *
80% local general aviation
16% transient general aviation
4% air taxi
* for 12-month period ending 31 December 2015

Additional Remarks

SEASONAL CROPS 112'L/R OF RWY CL ENTIRE LENGTH WITHIN PRIM SFC.
FOR CD CTC IND APCH AT 317-227-5743.

Instrument Procedures

NOTE: All procedures below are presented as PDF files. If you need a reader for these files, you should download the free Adobe Reader.

NOT FOR NAVIGATION. Please procure official charts for flight.
FAA instrument procedures published for use between 9 November 2017 at 0901Z and 7 December 2017 at 0900Z.

 
IAPs - Instrument Approach Procedures
RNAV (GPS) RWY 09   download (201KB)
RNAV (GPS) RWY 27   download (211KB)
VOR RWY 27   download (173KB)
NDB OR GPS RWY 09   download (186KB)
NOTE: Special Take-Off Minimums/Departure Procedures apply   download (164KB)

Other nearby airports with instrument procedures:

KCEV - Mettel Field Airport (14 nm SE)
KAID - Anderson Municipal Airport-Darlington Field (19 nm NW)
KMIE - Delaware County Regional Airport (22 nm N)
KRID - Richmond Municipal Airport (23 nm E)
I22 - Randolph County Airport (25 nm NE)
 
Loc | Ops | Rwys | IFR | FBO | Links
Com | Nav | Svcs | Stats | Notes


 
Area around KUWL (New Castle-Henry County Municipal Airport)
 
Road maps at: MapQuest Bing Google
 
Aerial photo
WARNING: Photo may not be current or correct
Aerial photo of KUWL (New Castle-Henry County Municipal Airport)
Photo taken 30-Jun-2012
looking southwest.

Do you have a better or more recent aerial photo of New Castle-Henry County Municipal Airport that you would like to share? If so, please send us your photo.

 
Sectional chart

 
Airport distance calculator
Flying to New Castle-Henry County Municipal Airport? Find the distance to fly.

From to KUWL

Sunrise and sunset
Times for 24-Nov-2017
 Local
(UTC-5)
 Zulu
(UTC)
Morning civil twilight07:0812:08
Sunrise07:3712:37
Sunset17:1922:19
Evening civil twilight17:4822:48

Current date and time
Zulu (UTC)  24-Nov-2017 06:02:11
Local (UTC-5)  24-Nov-2017 01:02:11
 
METAR
KMIE 
22nm N 
240553Z AUTO 19006KT 10SM CLR 02/M04 A2998 RMK AO2 SLP153 T00171044 10039 20017 56008
KRID 
23nm E 
240555Z AUTO 20004KT 10SM CLR M02/M04 A3000 RMK AO2
KMQJ 
26nm W 
240536Z AUTO 00000KT 10SM CLR M01/M04 A2999 RMK AO1
KGEZ 
28nm SW 
240553Z AUTO 17005KT 10SM CLR M01/M05 A2999 RMK AO2 SLP161 T10061050 10033 21017 56009
KHLB 
32nm S 
240535Z AUTO 00000KT 10SM CLR M01/M04 A3000 RMK A01
KHFY 
38nm SW 
240535Z AUTO 15003KT 10SM CLR 00/M04 A2999 RMK AO2 T00001040
TAF
KIND 
45nm W 
240520Z 2406/2512 18004KT P6SM SKC FM241600 20008KT P6SM FEW250 FM250800 26005KT P6SM SCT130
NOTAMs
Click for the latest NOTAMs
NOTAMs are issued by the DoD/FAA and will open in a separate window not controlled by AirNav.

 

 
 

FBO, Fuel Providers, and Aircraft Ground Support

  
 Business Name 
 
 Contact 
 
 Services / Description 
 
Fuel Prices
 
Comments
  
Sky Castle Aviation 765-529-7903
no information available

If you are affiliated with Sky Castle Aviation and would like to show here your services, contact info, web link, logo, and more, click here
100LL Jet A
FS $4.45 $3.15 
 Updated 22-Nov-2017
 
   write
FS=Full service
Update Fuel Prices
 

Would you like to see your business listed on this page?

 If your business provides an interesting product or service to pilots, flight crews, aircraft, or users of the New Castle-Henry County Municipal Airport, you should consider listing it here.  To start the listing process, click on the button below
 
Add a business
 

Other Pages about New Castle-Henry County Municipal Airport

Update a link
 
Copyright © AirNav, LLC. All rights reserved. Privacy Policy  Contact